Ronald, Washington
Current Conditions -  °F | °C
As of 10:53 PM on Friday 24 Oct 2014 (Local Time) from KELN Reporting Station
Overcast Overcast  
Wind Chill: 45°   Ceiling: 2500
Heat Index: 47°   Visibility: 10mi
Dew Point: 44°   Wind: 5mph
Humidity: 90%   Direction: 340°NNW
Pressure: 29.92"   Gusts: NA
Location:  47.23°N, 121.01°W
Report Text: KELN 250553Z AUTO 34004KT 10SM OVC025 08/07 A2992 RMK AO2 SLP136 60018 T00830067 10106 20083 58018
Loading
Personal Weather Stations






























Interactive Weather Map
Tropical Storm Tracking
New forecast layout! Learn more

10-Day Weather Forecast

Advertisements
Track Severe Weather on mobile